Time;durP1;ratioP1;P1;durP2;ratioP2;P2;SDS_P1;SDS_P2;PMS_P1;PMS_P2;Temp;Humidity;BMP_temperature;BMP_pressure;BME280_temperature;BME280_humidity;BME280_pressure;Samples;Min_cycle;Max_cycle;Signal;HPM_P1;HPM_P2
2023/07/15 00:00:36;;;;;;;0.77;0.77;;;;;;;;;;5032814;28;20033;-84
2023/07/15 00:03:03;;;;;;;0.63;0.52;;;;;;;;;;5033044;28;20025;-84
2023/07/15 00:05:35;;;;;;;1.15;0.70;;;;;;;;;;5033410;28;20029;-85
2023/07/15 00:08:02;;;;;;;0.35;0.32;;;;;;;;;;5033470;28;20032;-85
2023/07/15 00:10:29;;;;;;;0.77;0.70;;;;;;;;;;5033010;28;20028;-84
2023/07/15 00:12:55;;;;;;;0.50;0.50;;;;;;;;;;5032568;28;20033;-84
2023/07/15 00:15:21;;;;;;;1.38;0.38;;;;;;;;;;5032743;28;20053;-85
2023/07/15 00:17:47;;;;;;;0.95;0.45;;;;;;;;;;5032680;28;20132;-85
2023/07/15 00:20:18;;;;;;;0.70;0.60;;;;;;;;;;5032772;28;20115;-85
2023/07/15 00:22:44;;;;;;;0.43;0.40;;;;;;;;;;5033014;28;20052;-84
2023/07/15 00:25:13;;;;;;;0.20;0.20;;;;;;;;;;5032778;28;20037;-85
2023/07/15 00:27:40;;;;;;;0.43;0.43;;;;;;;;;;5032188;28;20123;-85
2023/07/15 00:30:08;;;;;;;0.40;0.40;;;;;;;;;;5032570;28;20183;-85
2023/07/15 00:32:34;;;;;;;0.28;0.28;;;;;;;;;;5033105;28;20025;-85
2023/07/15 00:35:00;;;;;;;0.50;0.50;;;;;;;;;;5032565;28;20048;-85
2023/07/15 00:37:26;;;;;;;0.30;0.30;;;;;;;;;;5032487;28;20065;-85
2023/07/15 00:39:52;;;;;;;0.55;0.55;;;;;;;;;;5032824;28;20033;-84
2023/07/15 00:42:37;;;;;;;0.22;0.22;;;;;;;;;;5033084;28;20022;-84
2023/07/15 00:45:03;;;;;;;0.25;0.25;;;;;;;;;;5032617;28;20026;-85
2023/07/15 00:47:34;;;;;;;0.10;0.10;;;;;;;;;;5032384;28;20366;-85
2023/07/15 00:50:00;;;;;;;0.10;0.10;;;;;;;;;;5031991;28;20037;-85
2023/07/15 00:52:26;;;;;;;0.22;0.22;;;;;;;;;;5033050;28;20038;-85
2023/07/15 00:54:54;;;;;;;0.68;0.63;;;;;;;;;;5032406;28;20030;-84
2023/07/15 00:57:21;;;;;;;0.10;0.10;;;;;;;;;;5031856;28;20467;-85
2023/07/15 00:59:48;;;;;;;0.90;0.77;;;;;;;;;;5032056;28;20029;-85
2023/07/15 01:02:15;;;;;;;0.40;0.40;;;;;;;;;;5032144;28;20022;-85
2023/07/15 01:04:41;;;;;;;0.88;0.40;;;;;;;;;;5032061;28;20029;-85
2023/07/15 01:07:07;;;;;;;2.40;1.10;;;;;;;;;;5032742;28;20031;-85
2023/07/15 01:09:34;;;;;;;0.73;0.73;;;;;;;;;;5032347;28;20038;-85
2023/07/15 01:12:00;;;;;;;0.20;0.20;;;;;;;;;;5031871;28;20029;-84
2023/07/15 01:14:28;;;;;;;0.10;0.10;;;;;;;;;;5032004;28;20060;-85
2023/07/15 01:16:54;;;;;;;0.20;0.20;;;;;;;;;;5032090;28;20045;-85
2023/07/15 01:19:21;;;;;;;0.20;0.20;;;;;;;;;;5031890;28;20405;-85
2023/07/15 01:21:50;;;;;;;0.25;0.25;;;;;;;;;;5031698;28;20101;-85
2023/07/15 01:24:20;;;;;;;0.35;0.30;;;;;;;;;;5032316;28;20075;-84
2023/07/15 01:26:46;;;;;;;0.10;0.10;;;;;;;;;;5031180;28;20029;-84
2023/07/15 01:29:13;;;;;;;0.32;0.32;;;;;;;;;;5031927;28;20105;-84
2023/07/15 01:31:40;;;;;;;0.25;0.25;;;;;;;;;;5032242;28;20022;-85
2023/07/15 01:34:07;;;;;;;0.98;0.90;;;;;;;;;;5031907;28;20033;-85
2023/07/15 01:36:33;;;;;;;0.30;0.30;;;;;;;;;;5031755;28;20037;-85
2023/07/15 01:38:59;;;;;;;0.47;0.47;;;;;;;;;;5032652;28;20029;-85
2023/07/15 01:41:25;;;;;;;0.30;0.15;;;;;;;;;;5035746;28;20022;-85
2023/07/15 01:43:51;;;;;;;0.20;0.20;;;;;;;;;;5035841;28;20519;-84
2023/07/15 01:46:17;;;;;;;0.28;0.28;;;;;;;;;;5036786;28;20036;-85
2023/07/15 01:48:43;;;;;;;0.43;0.40;;;;;;;;;;5035547;28;20026;-84
2023/07/15 01:51:10;;;;;;;1.13;0.60;;;;;;;;;;5035436;28;20493;-84
2023/07/15 01:53:36;;;;;;;0.20;0.20;;;;;;;;;;5036075;28;20034;-85
2023/07/15 01:56:02;;;;;;;0.03;0.03;;;;;;;;;;5035097;28;20499;-85
2023/07/15 01:58:28;;;;;;;0.20;0.20;;;;;;;;;;5035510;28;20033;-85
2023/07/15 02:00:54;;;;;;;0.35;0.28;;;;;;;;;;5035455;28;20079;-84
2023/07/15 02:03:20;;;;;;;0.30;0.30;;;;;;;;;;5035326;28;20072;-84
2023/07/15 02:05:48;;;;;;;0.15;0.15;;;;;;;;;;5035390;28;20017;-84
2023/07/15 02:08:14;;;;;;;0.28;0.28;;;;;;;;;;5035769;28;20087;-85
2023/07/15 02:10:40;;;;;;;0.10;0.10;;;;;;;;;;5035000;28;20018;-84
2023/07/15 02:13:06;;;;;;;0.10;0.10;;;;;;;;;;5035401;28;20025;-85
2023/07/15 02:15:32;;;;;;;0.17;0.17;;;;;;;;;;5034895;28;20045;-85
2023/07/15 02:17:58;;;;;;;3.60;0.50;;;;;;;;;;5035098;28;20044;-85
2023/07/15 02:20:24;;;;;;;0.20;0.20;;;;;;;;;;5035480;28;20484;-84
2023/07/15 02:22:52;;;;;;;0.13;0.13;;;;;;;;;;5034959;28;20024;-85
2023/07/15 02:25:19;;;;;;;0.15;0.15;;;;;;;;;;5035031;28;20022;-85
2023/07/15 02:27:46;;;;;;;0.43;0.20;;;;;;;;;;5034754;28;20033;-84
2023/07/15 02:30:12;;;;;;;0.32;0.32;;;;;;;;;;5034854;28;20025;-85
2023/07/15 02:32:42;;;;;;;0.22;0.22;;;;;;;;;;5035216;28;20115;-85
2023/07/15 02:35:11;;;;;;;0.35;0.35;;;;;;;;;;5034998;28;20025;-84
2023/07/15 02:37:38;;;;;;;0.57;0.55;;;;;;;;;;5034731;28;20065;-85
2023/07/15 02:40:04;;;;;;;0.20;0.20;;;;;;;;;;5034427;28;20018;-85
2023/07/15 02:42:33;;;;;;;0.40;0.40;;;;;;;;;;5034712;28;20029;-84
2023/07/15 02:45:00;;;;;;;0.57;0.32;;;;;;;;;;5034601;28;20482;-85
2023/07/15 02:47:26;;;;;;;0.28;0.28;;;;;;;;;;5034589;28;20053;-85
2023/07/15 02:49:52;;;;;;;0.68;0.60;;;;;;;;;;5034158;28;20025;-85
2023/07/15 02:52:18;;;;;;;0.50;0.50;;;;;;;;;;5034602;28;20191;-84
2023/07/15 02:54:44;;;;;;;0.57;0.50;;;;;;;;;;5034775;28;20025;-85
2023/07/15 02:57:10;;;;;;;1.17;0.73;;;;;;;;;;5032997;28;20108;-84
2023/07/15 02:59:36;;;;;;;0.93;0.88;;;;;;;;;;5034832;28;20437;-85
2023/07/15 03:02:02;;;;;;;0.45;0.45;;;;;;;;;;5034333;28;20029;-85
2023/07/15 03:04:28;;;;;;;0.80;0.75;;;;;;;;;;5034133;28;20493;-85
2023/07/15 03:06:55;;;;;;;1.05;0.30;;;;;;;;;;5034018;28;20021;-85
2023/07/15 03:09:21;;;;;;;0.40;0.40;;;;;;;;;;5034610;28;20022;-84
2023/07/15 03:11:47;;;;;;;1.92;0.63;;;;;;;;;;5034432;28;20026;-85
2023/07/15 03:14:13;;;;;;;1.55;1.02;;;;;;;;;;5033892;28;20029;-85
2023/07/15 03:16:39;;;;;;;0.50;0.50;;;;;;;;;;5034152;28;20120;-85
2023/07/15 03:19:05;;;;;;;0.20;0.20;;;;;;;;;;5034244;28;20425;-85
2023/07/15 03:21:31;;;;;;;0.10;0.10;;;;;;;;;;5033628;28;20107;-85
2023/07/15 03:23:57;;;;;;;0.32;0.32;;;;;;;;;;5033807;28;20593;-85
2023/07/15 03:26:23;;;;;;;0.60;0.60;;;;;;;;;;5034124;28;20091;-84
2023/07/15 03:28:50;;;;;;;0.40;0.40;;;;;;;;;;5033701;28;20040;-84
2023/07/15 03:31:16;;;;;;;0.17;0.17;;;;;;;;;;5034231;28;20430;-85
2023/07/15 03:33:42;;;;;;;0.30;0.30;;;;;;;;;;5033278;28;20037;-85
2023/07/15 03:36:09;;;;;;;0.30;0.30;;;;;;;;;;5033195;28;20563;-84
2023/07/15 03:38:35;;;;;;;0.40;0.40;;;;;;;;;;5033882;28;20076;-85
2023/07/15 03:41:01;;;;;;;0.55;0.43;;;;;;;;;;5033728;28;20025;-84
2023/07/15 03:43:27;;;;;;;0.20;0.20;;;;;;;;;;5033736;28;20036;-85
2023/07/15 03:45:56;;;;;;;0.25;0.25;;;;;;;;;;5034439;28;20028;-84
2023/07/15 03:48:22;;;;;;;0.40;0.40;;;;;;;;;;5033516;28;20037;-84
2023/07/15 03:50:48;;;;;;;0.30;0.30;;;;;;;;;;5032734;28;20025;-84
2023/07/15 03:53:15;;;;;;;0.10;0.10;;;;;;;;;;5033948;28;20025;-84
2023/07/15 03:55:41;;;;;;;1.45;1.00;;;;;;;;;;5033258;28;20022;-84
2023/07/15 03:58:07;;;;;;;0.28;0.28;;;;;;;;;;5033243;28;20121;-84
2023/07/15 04:00:33;;;;;;;0.50;0.50;;;;;;;;;;5033125;28;20018;-85
2023/07/15 04:03:01;;;;;;;0.20;0.20;;;;;;;;;;5032483;28;20033;-84
2023/07/15 04:05:27;;;;;;;0.10;0.10;;;;;;;;;;5032833;28;20025;-84
2023/07/15 04:07:53;;;;;;;0.57;0.45;;;;;;;;;;5033047;28;20024;-85
2023/07/15 04:10:20;;;;;;;0.98;0.13;;;;;;;;;;5033080;28;20025;-84
2023/07/15 04:12:46;;;;;;;0.40;0.32;;;;;;;;;;5032987;28;20030;-84
2023/07/15 04:15:12;;;;;;;0.15;0.15;;;;;;;;;;5033175;28;20029;-84
2023/07/15 04:17:38;;;;;;;0.10;0.10;;;;;;;;;;5033034;28;20041;-84
2023/07/15 04:20:10;;;;;;;0.00;0.00;;;;;;;;;;5032616;28;20051;-84
2023/07/15 04:22:38;;;;;;;0.43;0.22;;;;;;;;;;5032739;28;20026;-85
2023/07/15 04:25:05;;;;;;;0.85;0.40;;;;;;;;;;5033131;28;20018;-84
2023/07/15 04:27:31;;;;;;;0.40;0.40;;;;;;;;;;5032611;28;20029;-84
2023/07/15 04:29:58;;;;;;;0.13;0.13;;;;;;;;;;5033087;28;20149;-84
2023/07/15 04:32:24;;;;;;;0.10;0.10;;;;;;;;;;5032725;28;20025;-84
2023/07/15 04:34:50;;;;;;;0.20;0.20;;;;;;;;;;5032364;28;20026;-84
2023/07/15 04:37:20;;;;;;;0.65;0.65;;;;;;;;;;5032841;28;20037;-84
2023/07/15 04:39:46;;;;;;;0.40;0.30;;;;;;;;;;5032381;28;20029;-84
2023/07/15 04:42:12;;;;;;;1.27;1.17;;;;;;;;;;5032641;28;20381;-84
2023/07/15 04:44:38;;;;;;;0.20;0.20;;;;;;;;;;5032447;28;20037;-84
2023/07/15 04:47:04;;;;;;;0.68;0.17;;;;;;;;;;5032354;28;20021;-85
2023/07/15 04:49:30;;;;;;;0.50;0.38;;;;;;;;;;5032607;28;20026;-84
2023/07/15 04:51:56;;;;;;;0.82;0.32;;;;;;;;;;5032346;28;20033;-84
2023/07/15 04:54:22;;;;;;;0.28;0.28;;;;;;;;;;5032249;28;20445;-84
2023/07/15 04:56:48;;;;;;;0.80;0.30;;;;;;;;;;5032184;28;20412;-84
2023/07/15 04:59:14;;;;;;;0.43;0.40;;;;;;;;;;5032715;28;20022;-84
2023/07/15 05:01:40;;;;;;;0.47;0.47;;;;;;;;;;5032159;28;20405;-84
2023/07/15 05:04:06;;;;;;;0.20;0.20;;;;;;;;;;5032495;28;20022;-84
2023/07/15 05:06:32;;;;;;;0.28;0.28;;;;;;;;;;5032254;28;20100;-85
2023/07/15 05:08:58;;;;;;;0.45;0.45;;;;;;;;;;5032006;28;20318;-85
2023/07/15 05:11:27;;;;;;;0.45;0.45;;;;;;;;;;5032687;28;20057;-84
2023/07/15 05:13:53;;;;;;;1.17;0.30;;;;;;;;;;5032001;28;20029;-84
2023/07/15 05:16:20;;;;;;;0.50;0.50;;;;;;;;;;5031676;28;20056;-84
2023/07/15 05:18:47;;;;;;;0.22;0.22;;;;;;;;;;5030803;28;20052;-85
2023/07/15 05:21:13;;;;;;;0.20;0.20;;;;;;;;;;5031902;28;20021;-85
2023/07/15 05:23:39;;;;;;;0.73;0.73;;;;;;;;;;5032071;28;20083;-84
2023/07/15 05:26:05;;;;;;;0.47;0.47;;;;;;;;;;5032068;28;20496;-85
2023/07/15 05:28:31;;;;;;;0.82;0.77;;;;;;;;;;5031797;28;20029;-85
2023/07/15 05:31:00;;;;;;;0.80;0.35;;;;;;;;;;5032169;28;20025;-85
2023/07/15 05:33:27;;;;;;;0.65;0.50;;;;;;;;;;5031467;28;20025;-85
2023/07/15 05:35:54;;;;;;;0.40;0.40;;;;;;;;;;5031906;28;20126;-85
2023/07/15 05:38:23;;;;;;;0.30;0.30;;;;;;;;;;5032748;28;20040;-86
2023/07/15 05:40:50;;;;;;;0.45;0.45;;;;;;;;;;5031727;28;20393;-85
2023/07/15 05:43:16;;;;;;;0.47;0.22;;;;;;;;;;5030634;28;20029;-85
2023/07/15 05:45:42;;;;;;;0.50;0.20;;;;;;;;;;5031542;28;20026;-85
2023/07/15 05:48:08;;;;;;;0.98;0.68;;;;;;;;;;5031525;28;20057;-85
2023/07/15 05:50:37;;;;;;;0.20;0.20;;;;;;;;;;5031520;28;20537;-85
2023/07/15 05:53:06;;;;;;;0.82;0.63;;;;;;;;;;5032479;28;20095;-84
2023/07/15 05:55:35;;;;;;;0.20;0.20;;;;;;;;;;5032044;28;20026;-85
2023/07/15 05:58:01;;;;;;;0.30;0.30;;;;;;;;;;5031720;28;20030;-85
2023/07/15 06:00:28;;;;;;;0.30;0.30;;;;;;;;;;5031762;28;20095;-85
2023/07/15 06:02:54;;;;;;;0.52;0.52;;;;;;;;;;5031248;28;20025;-85
2023/07/15 06:05:20;;;;;;;0.10;0.10;;;;;;;;;;5031618;28;20075;-85
2023/07/15 06:07:48;;;;;;;1.20;0.35;;;;;;;;;;5031428;28;20022;-85
2023/07/15 06:10:13;;;;;;;0.30;0.30;;;;;;;;;;5031792;28;20021;-85
2023/07/15 06:12:39;;;;;;;0.73;0.60;;;;;;;;;;5031998;28;20032;-85
2023/07/15 06:15:06;;;;;;;0.25;0.25;;;;;;;;;;5031219;28;20041;-84
2023/07/15 06:17:32;;;;;;;0.13;0.13;;;;;;;;;;5031135;28;20103;-85
2023/07/15 06:19:58;;;;;;;0.28;0.28;;;;;;;;;;5031360;28;20140;-85
2023/07/15 06:22:24;;;;;;;0.77;0.60;;;;;;;;;;5031176;28;20049;-85
2023/07/15 06:24:50;;;;;;;1.15;0.73;;;;;;;;;;5032510;28;20030;-85
2023/07/15 06:27:16;;;;;;;0.20;0.20;;;;;;;;;;5034889;28;20025;-85
2023/07/15 06:29:43;;;;;;;0.20;0.20;;;;;;;;;;5034913;28;20398;-85
2023/07/15 06:32:09;;;;;;;1.58;0.95;;;;;;;;;;5034580;28;20393;-85
2023/07/15 06:34:35;;;;;;;0.65;0.63;;;;;;;;;;5035064;28;20033;-85
2023/07/15 06:37:01;;;;;;;1.02;0.73;;;;;;;;;;5034858;28;20140;-85
2023/07/15 06:39:27;;;;;;;0.17;0.17;;;;;;;;;;5034737;28;20030;-85
2023/07/15 06:41:53;;;;;;;0.38;0.38;;;;;;;;;;5034759;28;20026;-85
2023/07/15 06:44:19;;;;;;;0.60;0.43;;;;;;;;;;5034736;28;20101;-84
2023/07/15 06:46:45;;;;;;;1.02;0.93;;;;;;;;;;5034521;28;20029;-85
2023/07/15 06:49:11;;;;;;;8.45;1.38;;;;;;;;;;5034598;28;20025;-85
2023/07/15 06:51:37;;;;;;;18.42;1.75;;;;;;;;;;5034198;28;20536;-85
2023/07/15 06:54:03;;;;;;;0.47;0.47;;;;;;;;;;5034464;28;20075;-85
2023/07/15 06:56:29;;;;;;;0.47;0.47;;;;;;;;;;5033474;28;20030;-85
2023/07/15 06:58:55;;;;;;;0.30;0.20;;;;;;;;;;5034100;28;20029;-85
2023/07/15 07:01:21;;;;;;;0.40;0.40;;;;;;;;;;5035316;28;20444;-85
2023/07/15 07:03:47;;;;;;;0.38;0.38;;;;;;;;;;5034237;28;20520;-85
2023/07/15 07:06:14;;;;;;;0.25;0.25;;;;;;;;;;5034280;28;20047;-85
2023/07/15 07:08:40;;;;;;;0.30;0.30;;;;;;;;;;5034231;28;20053;-85
2023/07/15 07:11:07;;;;;;;0.65;0.65;;;;;;;;;;5034573;28;20500;-85
2023/07/15 07:13:32;;;;;;;0.63;0.63;;;;;;;;;;5033822;28;20491;-86
2023/07/15 07:15:59;;;;;;;1.95;0.50;;;;;;;;;;5033946;28;20107;-85
2023/07/15 07:18:25;;;;;;;0.28;0.28;;;;;;;;;;5033972;28;20060;-85
2023/07/15 07:20:58;;;;;;;0.68;0.50;;;;;;;;;;5034320;28;20489;-85
2023/07/15 07:23:24;;;;;;;0.38;0.32;;;;;;;;;;5033881;28;20034;-86
2023/07/15 07:25:50;;;;;;;0.68;0.68;;;;;;;;;;5033830;28;20132;-85
2023/07/15 07:28:16;;;;;;;0.45;0.40;;;;;;;;;;5033784;28;20029;-85
2023/07/15 07:30:43;;;;;;;1.00;0.60;;;;;;;;;;5033722;28;20067;-85
2023/07/15 07:33:08;;;;;;;0.20;0.20;;;;;;;;;;5033721;28;20497;-85
2023/07/15 07:35:34;;;;;;;0.10;0.10;;;;;;;;;;5033682;28;20370;-85
2023/07/15 07:38:01;;;;;;;0.57;0.57;;;;;;;;;;5032962;28;20120;-85
2023/07/15 07:40:27;;;;;;;0.22;0.22;;;;;;;;;;5033512;28;20022;-85
2023/07/15 07:42:53;;;;;;;0.10;0.10;;;;;;;;;;5033527;28;20099;-85
2023/07/15 07:45:20;;;;;;;0.45;0.45;;;;;;;;;;5033466;28;20017;-85
2023/07/15 07:47:46;;;;;;;1.27;0.30;;;;;;;;;;5033738;28;20033;-85
2023/07/15 07:50:12;;;;;;;1.98;0.73;;;;;;;;;;5033342;28;20036;-84
2023/07/15 07:52:38;;;;;;;0.28;0.28;;;;;;;;;;5033244;28;20029;-85
2023/07/15 07:55:04;;;;;;;0.55;0.45;;;;;;;;;;5033229;28;20021;-85
2023/07/15 07:57:30;;;;;;;0.57;0.57;;;;;;;;;;5032863;28;20057;-85
2023/07/15 07:59:56;;;;;;;0.35;0.35;;;;;;;;;;5033162;28;20071;-85
2023/07/15 08:02:22;;;;;;;0.20;0.20;;;;;;;;;;5033049;28;20551;-85
2023/07/15 08:04:48;;;;;;;0.15;0.15;;;;;;;;;;5032886;28;20033;-85
2023/07/15 08:07:15;;;;;;;0.20;0.20;;;;;;;;;;5033221;28;20033;-85
2023/07/15 08:09:41;;;;;;;0.25;0.25;;;;;;;;;;5033374;28;20029;-85
2023/07/15 08:12:10;;;;;;;0.52;0.52;;;;;;;;;;5032840;28;20026;-85
2023/07/15 08:14:36;;;;;;;0.75;0.68;;;;;;;;;;5032826;28;20612;-85
2023/07/15 08:17:02;;;;;;;5.97;0.98;;;;;;;;;;5032530;28;20140;-85
2023/07/15 08:19:28;;;;;;;0.60;0.50;;;;;;;;;;5032852;28;20025;-85
2023/07/15 08:21:54;;;;;;;0.68;0.68;;;;;;;;;;5033122;28;20462;-85
2023/07/15 08:24:20;;;;;;;0.32;0.32;;;;;;;;;;5031356;28;20025;-85
2023/07/15 08:26:46;;;;;;;1.35;0.88;;;;;;;;;;5033748;28;20087;-85
2023/07/15 08:29:12;;;;;;;0.50;0.50;;;;;;;;;;5032774;28;20400;-85
2023/07/15 08:31:38;;;;;;;0.88;0.88;;;;;;;;;;5032846;28;20076;-85
2023/07/15 08:34:04;;;;;;;1.00;0.63;;;;;;;;;;5032848;28;20057;-85
2023/07/15 08:36:30;;;;;;;2.17;1.10;;;;;;;;;;5032364;28;20057;-85
2023/07/15 08:38:56;;;;;;;0.32;0.32;;;;;;;;;;5032490;28;20021;-85
2023/07/15 08:41:25;;;;;;;0.40;0.40;;;;;;;;;;5032481;28;20033;-85
2023/07/15 08:43:52;;;;;;;1.92;0.73;;;;;;;;;;5031475;28;20091;-85
2023/07/15 08:46:27;;;;;;;0.38;0.38;;;;;;;;;;5032643;28;20448;-85
2023/07/15 08:48:57;;;;;;;1.35;0.82;;;;;;;;;;5032469;28;20028;-84
2023/07/15 08:51:25;;;;;;;0.60;0.60;;;;;;;;;;5032106;28;20032;-85
2023/07/15 08:53:51;;;;;;;0.55;0.55;;;;;;;;;;5032483;28;20491;-84
2023/07/15 08:56:17;;;;;;;0.85;0.70;;;;;;;;;;5031850;28;20072;-85
2023/07/15 08:58:44;;;;;;;0.35;0.30;;;;;;;;;;5031990;28;20046;-85
2023/07/15 09:01:10;;;;;;;0.20;0.20;;;;;;;;;;5031896;28;20056;-85
2023/07/15 09:03:36;;;;;;;0.30;0.30;;;;;;;;;;5032043;28;20042;-85
2023/07/15 09:06:02;;;;;;;0.95;0.45;;;;;;;;;;5031259;28;20533;-85
2023/07/15 09:08:28;;;;;;;0.35;0.32;;;;;;;;;;5031850;28;20501;-85
2023/07/15 09:10:55;;;;;;;0.90;0.73;;;;;;;;;;5031352;28;20069;-85
2023/07/15 09:13:32;;;;;;;0.10;0.10;;;;;;;;;;5032573;28;20028;-85
2023/07/15 09:15:58;;;;;;;4.68;0.85;;;;;;;;;;5031771;28;20429;-84
2023/07/15 09:18:25;;;;;;;0.80;0.70;;;;;;;;;;5031775;28;20504;-85
2023/07/15 09:20:51;;;;;;;0.75;0.25;;;;;;;;;;5031892;28;20036;-85
2023/07/15 09:23:18;;;;;;;0.30;0.30;;;;;;;;;;5031769;28;20034;-85
2023/07/15 09:25:51;;;;;;;1.75;0.63;;;;;;;;;;5031766;28;20466;-84
2023/07/15 09:28:18;;;;;;;0.52;0.47;;;;;;;;;;5031749;28;20017;-85
2023/07/15 09:30:44;;;;;;;0.47;0.45;;;;;;;;;;5031692;28;20030;-85
2023/07/15 09:33:26;;;;;;;0.30;0.30;;;;;;;;;;5031644;28;20080;-85
2023/07/15 09:35:52;;;;;;;0.70;0.70;;;;;;;;;;5032160;28;20029;-85
2023/07/15 09:38:20;;;;;;;0.75;0.75;;;;;;;;;;5031583;28;20042;-85
2023/07/15 09:40:46;;;;;;;0.05;0.05;;;;;;;;;;5031872;28;20029;-86
2023/07/15 09:43:13;;;;;;;0.35;0.35;;;;;;;;;;5032273;28;20028;-86
2023/07/15 09:45:40;;;;;;;0.22;0.22;;;;;;;;;;5031725;28;20053;-86
2023/07/15 09:48:10;;;;;;;0.30;0.30;;;;;;;;;;5031842;28;20026;-87
2023/07/15 09:50:38;;;;;;;0.65;0.50;;;;;;;;;;5030243;28;20042;-86
2023/07/15 09:53:04;;;;;;;1.58;0.82;;;;;;;;;;5031240;28;20017;-86
2023/07/15 09:55:31;;;;;;;0.68;0.50;;;;;;;;;;5031488;28;20079;-86
2023/07/15 09:58:01;;;;;;;0.22;0.22;;;;;;;;;;5031743;28;20095;-86
2023/07/15 10:00:29;;;;;;;2.25;0.63;;;;;;;;;;5032865;28;20429;-86
2023/07/15 10:03:00;;;;;;;0.30;0.30;;;;;;;;;;5035343;28;20561;-86
2023/07/15 10:05:26;;;;;;;0.22;0.22;;;;;;;;;;5035206;28;20036;-86
2023/07/15 10:07:52;;;;;;;1.13;0.82;;;;;;;;;;5035374;28;20037;-86
2023/07/15 10:10:21;;;;;;;0.08;0.08;;;;;;;;;;5035327;28;20032;-86
2023/07/15 10:12:47;;;;;;;1.35;0.63;;;;;;;;;;5035791;28;20041;-86
2023/07/15 10:15:14;;;;;;;0.68;0.60;;;;;;;;;;5035295;28;20324;-86
2023/07/15 10:17:40;;;;;;;3.38;1.65;;;;;;;;;;5034898;28;20051;-86
2023/07/15 10:20:17;;;;;;;0.52;0.52;;;;;;;;;;5035502;28;20022;-86
2023/07/15 10:22:43;;;;;;;0.30;0.30;;;;;;;;;;5034540;28;20021;-86
2023/07/15 10:25:10;;;;;;;0.63;0.20;;;;;;;;;;5035297;28;20032;-86
2023/07/15 10:27:37;;;;;;;3.13;1.10;;;;;;;;;;5034969;28;20076;-86
2023/07/15 10:30:15;;;;;;;0.77;0.45;;;;;;;;;;5034852;28;20091;-86
2023/07/15 10:33:08;;;;;;;0.40;0.40;;;;;;;;;;5034745;28;20393;-86
2023/07/15 10:35:35;;;;;;;0.25;0.25;;;;;;;;;;5033433;28;20106;-86
2023/07/15 10:38:02;;;;;;;0.70;0.70;;;;;;;;;;5034642;28;20040;-86
2023/07/15 10:40:46;;;;;;;0.70;0.70;;;;;;;;;;5034607;28;20393;-86
2023/07/15 10:43:12;;;;;;;1.58;0.70;;;;;;;;;;5034705;28;20025;-86
2023/07/15 10:45:42;;;;;;;0.40;0.40;;;;;;;;;;5034612;28;20029;-85
2023/07/15 10:48:09;;;;;;;0.30;0.30;;;;;;;;;;5034707;28;20390;-86
2023/07/15 10:50:36;;;;;;;0.32;0.32;;;;;;;;;;5034681;28;20481;-86
2023/07/15 10:53:22;;;;;;;0.40;0.40;;;;;;;;;;5033955;28;20033;-86
2023/07/15 10:55:54;;;;;;;0.47;0.47;;;;;;;;;;5034361;28;20047;-85
2023/07/15 10:58:20;;;;;;;0.32;0.32;;;;;;;;;;5034216;28;20037;-86
2023/07/15 11:00:46;;;;;;;0.95;0.25;;;;;;;;;;5034222;28;20112;-86
2023/07/15 11:03:12;;;;;;;0.55;0.45;;;;;;;;;;5034643;28;20060;-86
2023/07/15 11:05:38;;;;;;;1.50;0.60;;;;;;;;;;5034077;28;20021;-86
2023/07/15 11:08:08;;;;;;;1.85;1.10;;;;;;;;;;5034401;28;20083;-86
2023/07/15 11:10:35;;;;;;;0.20;0.20;;;;;;;;;;5034268;28;20032;-86
2023/07/15 11:13:17;;;;;;;0.73;0.73;;;;;;;;;;5034546;28;20083;-86
2023/07/15 11:15:46;;;;;;;0.28;0.20;;;;;;;;;;5033968;28;20128;-86
2023/07/15 11:18:16;;;;;;;1.48;1.05;;;;;;;;;;5033741;28;20041;-86
2023/07/15 11:20:42;;;;;;;0.28;0.28;;;;;;;;;;5033824;28;20482;-86
2023/07/15 11:23:09;;;;;;;0.63;0.63;;;;;;;;;;5033700;28;20026;-86
2023/07/15 11:25:35;;;;;;;0.38;0.38;;;;;;;;;;5033901;28;20454;-86
2023/07/15 11:28:01;;;;;;;1.20;0.88;;;;;;;;;;5033686;28;20083;-86
2023/07/15 11:30:36;;;;;;;0.47;0.47;;;;;;;;;;5033717;28;20040;-86
2023/07/15 11:33:03;;;;;;;4.03;1.33;;;;;;;;;;5033741;28;20025;-86
2023/07/15 11:35:35;;;;;;;0.73;0.70;;;;;;;;;;5033972;28;20025;-86
2023/07/15 11:38:12;;;;;;;0.77;0.77;;;;;;;;;;5033528;28;20033;-86
2023/07/15 11:40:48;;;;;;;0.40;0.40;;;;;;;;;;5033448;28;20044;-86
2023/07/15 11:43:16;;;;;;;1.02;0.80;;;;;;;;;;5033715;28;20029;-86
2023/07/15 11:45:42;;;;;;;0.82;0.50;;;;;;;;;;5032584;28;20076;-86
2023/07/15 11:48:07;;;;;;;0.95;0.82;;;;;;;;;;5033486;28;20026;-86
2023/07/15 11:50:35;;;;;;;1.40;0.88;;;;;;;;;;5032879;28;20029;-86
2023/07/15 11:53:02;;;;;;;3.92;1.85;;;;;;;;;;5033110;28;20104;-86
2023/07/15 11:55:29;;;;;;;0.82;0.65;;;;;;;;;;5033172;28;20026;-86
2023/07/15 11:57:55;;;;;;;0.43;0.43;;;;;;;;;;5033434;28;20168;-85
2023/07/15 12:00:25;;;;;;;0.43;0.43;;;;;;;;;;5033064;28;20091;-85
2023/07/15 12:02:51;;;;;;;0.50;0.50;;;;;;;;;;5033089;28;20388;-86
2023/07/15 12:05:17;;;;;;;0.20;0.20;;;;;;;;;;5032776;28;20025;-86
2023/07/15 12:07:47;;;;;;;0.45;0.45;;;;;;;;;;5033139;28;20049;-86
2023/07/15 12:10:14;;;;;;;4.00;1.75;;;;;;;;;;5033094;28;20116;-86
2023/07/15 12:12:40;;;;;;;0.28;0.28;;;;;;;;;;5033599;28;20037;-86
2023/07/15 12:15:07;;;;;;;1.23;0.70;;;;;;;;;;5033339;28;20036;-86
2023/07/15 12:17:33;;;;;;;0.55;0.55;;;;;;;;;;5032916;28;20389;-86
2023/07/15 12:19:59;;;;;;;0.30;0.30;;;;;;;;;;5032789;28;20029;-86
2023/07/15 12:22:24;;;;;;;1.65;0.80;;;;;;;;;;5032218;28;20087;-86
2023/07/15 12:24:50;;;;;;;0.75;0.73;;;;;;;;;;5032658;28;20104;-86
2023/07/15 12:27:16;;;;;;;0.43;0.43;;;;;;;;;;5032631;28;20033;-86
2023/07/15 12:29:42;;;;;;;0.95;0.90;;;;;;;;;;5032528;28;20025;-86
2023/07/15 12:32:08;;;;;;;0.73;0.73;;;;;;;;;;5033102;28;20501;-86
2023/07/15 12:34:34;;;;;;;0.10;0.10;;;;;;;;;;5032219;28;20086;-86
2023/07/15 12:37:00;;;;;;;0.63;0.43;;;;;;;;;;5032382;28;20029;-86
2023/07/15 12:39:26;;;;;;;1.05;0.50;;;;;;;;;;5032367;28;20029;-86
2023/07/15 12:41:52;;;;;;;0.30;0.30;;;;;;;;;;5032526;28;20116;-86
2023/07/15 12:44:18;;;;;;;1.33;0.65;;;;;;;;;;5032965;28;20029;-87
2023/07/15 12:46:44;;;;;;;0.40;0.40;;;;;;;;;;5032032;28;20512;-86
2023/07/15 12:49:11;;;;;;;1.00;0.88;;;;;;;;;;5032317;28;20017;-86
2023/07/15 12:51:37;;;;;;;1.08;0.88;;;;;;;;;;5032065;28;20033;-86
2023/07/15 12:54:03;;;;;;;0.35;0.35;;;;;;;;;;5032197;28;20032;-86
2023/07/15 12:56:29;;;;;;;0.40;0.40;;;;;;;;;;5032102;28;20374;-86
2023/07/15 12:58:55;;;;;;;0.73;0.73;;;;;;;;;;5032106;28;20036;-86
2023/07/15 13:01:21;;;;;;;0.47;0.47;;;;;;;;;;5032392;28;20041;-87
2023/07/15 13:03:47;;;;;;;0.60;0.50;;;;;;;;;;5032062;28;20486;-87
2023/07/15 13:06:12;;;;;;;0.40;0.40;;;;;;;;;;5032104;28;20025;-86
2023/07/15 13:08:38;;;;;;;0.90;0.63;;;;;;;;;;5031879;28;20032;-86
2023/07/15 13:11:04;;;;;;;1.17;0.95;;;;;;;;;;5032176;28;20025;-86
2023/07/15 13:13:30;;;;;;;0.85;0.57;;;;;;;;;;5032688;28;20040;-87
2023/07/15 13:15:56;;;;;;;0.40;0.40;;;;;;;;;;5031632;28;20057;-86
2023/07/15 13:18:22;;;;;;;1.45;1.15;;;;;;;;;;5031974;28;20033;-86
2023/07/15 13:20:48;;;;;;;1.10;0.88;;;;;;;;;;5031846;28;20037;-86
2023/07/15 13:23:15;;;;;;;0.20;0.20;;;;;;;;;;5031687;28;20036;-86
2023/07/15 13:25:41;;;;;;;0.80;0.52;;;;;;;;;;5032363;28;20053;-86
2023/07/15 13:28:07;;;;;;;0.40;0.40;;;;;;;;;;5031733;28;20030;-87
2023/07/15 13:30:34;;;;;;;0.30;0.10;;;;;;;;;;5031572;28;20029;-86
2023/07/15 13:32:59;;;;;;;0.38;0.38;;;;;;;;;;5031915;28;20026;-86
2023/07/15 13:35:25;;;;;;;0.60;0.57;;;;;;;;;;5033345;28;20056;-86
2023/07/15 13:37:51;;;;;;;0.77;0.68;;;;;;;;;;5036045;28;20033;-86
2023/07/15 13:40:18;;;;;;;1.23;1.00;;;;;;;;;;5035930;28;20076;-86
2023/07/15 13:42:43;;;;;;;0.65;0.38;;;;;;;;;;5036012;28;20029;-86
2023/07/15 13:45:10;;;;;;;0.50;0.43;;;;;;;;;;5035568;28;20040;-86
2023/07/15 13:47:35;;;;;;;1.38;1.23;;;;;;;;;;5035634;28;20067;-86
2023/07/15 13:50:03;;;;;;;0.75;0.75;;;;;;;;;;5035960;28;20493;-86
2023/07/15 13:52:29;;;;;;;0.50;0.50;;;;;;;;;;5035454;28;20109;-86
2023/07/15 13:54:55;;;;;;;0.73;0.73;;;;;;;;;;5035470;28;20565;-86
2023/07/15 13:57:21;;;;;;;1.63;0.88;;;;;;;;;;5035456;28;20121;-86
2023/07/15 13:59:47;;;;;;;0.60;0.60;;;;;;;;;;5035836;28;20100;-86
2023/07/15 14:02:15;;;;;;;1.48;0.82;;;;;;;;;;5035621;28;20029;-86
2023/07/15 14:04:41;;;;;;;0.20;0.20;;;;;;;;;;5035484;28;20370;-87
2023/07/15 14:07:07;;;;;;;0.50;0.40;;;;;;;;;;5035020;28;20032;-86
2023/07/15 14:09:33;;;;;;;2.25;0.73;;;;;;;;;;5035495;28;20026;-86
2023/07/15 14:11:59;;;;;;;0.75;0.50;;;;;;;;;;5035353;28;20029;-85
2023/07/15 14:14:25;;;;;;;0.40;0.38;;;;;;;;;;5035084;28;20099;-86
2023/07/15 14:16:51;;;;;;;3.20;1.17;;;;;;;;;;5034478;28;20095;-86
2023/07/15 14:19:17;;;;;;;2.90;1.00;;;;;;;;;;5034075;28;20038;-86
2023/07/15 14:21:43;;;;;;;0.50;0.50;;;;;;;;;;5033723;28;20028;-86
2023/07/15 14:24:09;;;;;;;1.05;0.63;;;;;;;;;;5033720;28;20076;-86
2023/07/15 14:26:35;;;;;;;0.45;0.45;;;;;;;;;;5034759;28;20381;-87
2023/07/15 14:29:01;;;;;;;0.60;0.55;;;;;;;;;;5032350;28;20037;-86
2023/07/15 14:31:28;;;;;;;0.57;0.57;;;;;;;;;;5033632;28;20021;-86
2023/07/15 14:33:54;;;;;;;23.08;1.30;;;;;;;;;;5033765;28;20401;-86
2023/07/15 14:36:23;;;;;;;2.85;1.15;;;;;;;;;;5033658;28;20519;-86
2023/07/15 14:38:49;;;;;;;1.15;0.57;;;;;;;;;;5033533;28;20101;-86
2023/07/15 14:41:15;;;;;;;0.30;0.30;;;;;;;;;;5033780;28;20020;-86